Pagrindinis puslapis
METAR-TAF:

METAR-TAF

Oro uostai :

Gachsaran, Iranas

platuma: 30-26N, ilguma: 050-46E, Aukštis: 738 m

Dabartinis oras

Ataskaita buvo paskelbta 26 minutes, ne 05:00 UTC
Ramus vėjas
Temperatūra 17°C
Drėgmė 15%
Slėgis 1016 hPa
Matomumas 10 km arba daugiau
nėra debesų žemiau 1500 m ir nėra kamuolinių lietaus debesų

METAR: OIAH 130500Z 00000KT CAVOK 17/M10 Q1016

Laikas: 08:56 (05:26 UTC)


TAF: trūkstamas

Orai ataskaitas ir orų prognozės (METAR, TAF).

turimą stotys yra geltonos ir raudonos taškus žemėlapyje.

Perkelti pele per norėdami pamatyti stoties vardą.

Tada spustelėkite, norėdami matyti oro stebėjimo ir prognozės.

Norėdami pakeisti žemėlapį: spustelėkite ant žalios mygtukų su juodo kryžiaus žemyn,; žalią mygtuką su brūkšneliu, jei norite nutolinti; arba žalių rodyklių gretimoms žemėlapius.


METAR-TAF: